Time;durP1;ratioP1;P1;durP2;ratioP2;P2;SDS_P1;SDS_P2;PMS_P1;PMS_P2;Temp;Humidity;BMP_temperature;BMP_pressure;BME280_temperature;BME280_humidity;BME280_pressure;Samples;Min_cycle;Max_cycle;Signal;HPM_P1;HPM_P2
2023/12/15 00:02:18;;;;;;;3.60;2.70;;;;;;;7.89;64.86;95909.66;6168993;23;20008;-85
2023/12/15 00:04:44;;;;;;;2.90;2.40;;;;;;;8.03;63.60;95900.56;6219322;23;20004;-85
2023/12/15 00:07:09;;;;;;;3.33;2.50;;;;;;;7.86;64.52;95911.72;6194532;23;20035;-86
2023/12/15 00:09:34;;;;;;;2.88;2.38;;;;;;;8.05;63.80;95911.59;6219512;23;20013;-85
2023/12/15 00:14:26;;;;;;;4.55;2.97;;;;;;;8.08;63.61;95921.69;6218038;22;20035;-85
2023/12/15 00:16:55;;;;;;;3.78;2.88;;;;;;;8.12;62.70;95924.81;6169858;23;20005;-85
2023/12/15 00:19:21;;;;;;;4.90;3.28;;;;;;;8.15;63.69;95929.72;6187827;23;20019;-84
2023/12/15 00:21:46;;;;;;;4.72;3.45;;;;;;;8.17;63.13;95938.16;6163070;23;20004;-86
2023/12/15 00:24:12;;;;;;;4.65;3.35;;;;;;;8.18;62.91;95922.44;6212448;23;20009;-85
2023/12/15 00:26:37;;;;;;;4.70;3.55;;;;;;;8.11;63.27;95929.19;6187655;23;20009;-85
2023/12/15 00:29:04;;;;;;;5.20;3.78;;;;;;;8.20;62.92;95941.25;6187192;23;20020;-85
2023/12/15 00:34:07;;;;;;;4.72;3.33;;;;;;;8.01;63.80;95938.75;6208766;23;20028;-85
2023/12/15 00:36:32;;;;;;;6.43;3.85;;;;;;;8.17;63.63;95951.13;6188396;23;20008;-86
2023/12/15 00:38:58;;;;;;;6.43;4.10;;;;;;;7.97;63.95;95963.34;6212371;23;20011;-86
2023/12/15 00:41:26;;;;;;;5.70;4.05;;;;;;;8.13;63.72;95960.94;6162797;23;20009;-85
2023/12/15 00:43:51;;;;;;;6.15;3.63;;;;;;;8.05;63.92;95967.78;6163436;23;20012;-85
2023/12/15 00:48:52;;;;;;;5.28;3.70;;;;;;;7.77;64.39;95962.59;6213158;23;20025;-85
2023/12/15 00:51:17;;;;;;;8.07;4.35;;;;;;;7.87;63.83;95967.75;6212738;23;20015;-85
2023/12/15 00:53:46;;;;;;;5.97;3.97;;;;;;;8.06;63.49;95977.22;6187201;23;20091;-86
2023/12/15 00:56:12;;;;;;;6.75;4.25;;;;;;;8.01;63.35;95972.44;6163281;23;20028;-85
2023/12/15 01:03:48;;;;;;;7.15;4.90;;;;;;;8.31;62.04;95992.09;6211700;23;20020;-85
2023/12/15 01:06:13;;;;;;;7.70;4.90;;;;;;;8.21;62.06;95986.94;6211682;23;20016;-85
2023/12/15 01:11:16;;;;;;;8.07;5.57;;;;;;;8.40;62.19;96000.78;6219320;23;20024;-85
2023/12/15 01:13:42;;;;;;;9.60;5.53;;;;;;;8.14;62.79;95992.84;6192943;23;20019;-85
2023/12/15 01:16:11;;;;;;;9.48;6.05;;;;;;;8.22;62.75;96014.50;6216689;23;20061;-85
2023/12/15 01:21:02;;;;;;;12.75;7.45;;;;;;;8.14;62.71;96019.56;6208347;23;20063;-86
2023/12/15 01:23:27;;;;;;;10.73;7.43;;;;;;;8.19;62.66;96017.38;6187575;23;20004;-85
2023/12/15 01:28:18;;;;;;;13.70;8.60;;;;;;;8.08;63.19;96021.94;6203173;23;20028;-85
2023/12/15 01:30:43;;;;;;;12.27;7.65;;;;;;;8.13;63.25;96043.03;6191678;23;20030;-85
2023/12/15 01:33:09;;;;;;;11.45;7.55;;;;;;;8.37;62.17;96032.97;6192247;23;20016;-85
2023/12/15 01:35:37;;;;;;;11.77;7.25;;;;;;;8.20;63.08;96052.69;6216970;23;20038;-85
2023/12/15 01:38:03;;;;;;;11.25;7.22;;;;;;;8.19;63.23;96061.44;6192357;23;20008;-85
2023/12/15 01:45:39;;;;;;;10.07;6.60;;;;;;;8.18;62.86;96056.38;6247393;22;20051;-84
2023/12/15 01:48:06;;;;;;;9.70;6.53;;;;;;;8.28;62.84;96067.56;6222065;22;20015;-85
2023/12/15 01:50:32;;;;;;;10.15;6.40;;;;;;;8.09;63.24;96058.06;6246993;22;19996;-85
2023/12/15 01:52:58;;;;;;;10.10;5.53;;;;;;;8.23;62.32;96067.97;6247010;22;20003;-85
2023/12/15 01:55:23;;;;;;;9.73;6.65;;;;;;;8.24;62.11;96061.00;6221967;22;20087;-85
2023/12/15 02:02:49;;;;;;;9.40;6.30;;;;;;;7.97;62.26;96072.94;6273456;22;20028;-84
2023/12/15 02:05:17;;;;;;;9.18;6.03;;;;;;;7.99;62.44;96078.78;6221420;22;20011;-85
2023/12/15 02:10:08;;;;;;;10.68;6.38;;;;;;;8.19;61.82;96089.94;6190130;23;20009;-85
2023/12/15 02:12:35;;;;;;;9.00;6.30;;;;;;;8.05;62.26;96084.38;6162161;23;20008;-84
2023/12/15 02:15:01;;;;;;;11.15;6.80;;;;;;;8.01;62.75;96096.78;6162287;23;20013;-84
2023/12/15 02:17:29;;;;;;;9.80;6.85;;;;;;;7.99;62.72;96096.13;6211367;23;20100;-85
2023/12/15 02:22:26;;;;;;;10.80;6.55;;;;;;;8.20;61.37;96104.50;6240807;23;20028;-85
2023/12/15 02:24:52;;;;;;;12.13;7.18;;;;;;;8.14;62.31;96106.88;6217321;23;20058;-84
2023/12/15 02:29:44;;;;;;;13.65;7.38;;;;;;;8.03;62.79;96118.19;6212221;22;20080;-85
2023/12/15 02:32:10;;;;;;;11.02;7.22;;;;;;;8.24;62.05;96125.78;6211818;23;20013;-84
2023/12/15 02:34:36;;;;;;;10.07;6.70;;;;;;;8.34;61.66;96129.19;6211055;23;20024;-84
2023/12/15 02:37:01;;;;;;;10.32;6.63;;;;;;;8.11;62.38;96128.69;6186527;23;20009;-84
2023/12/15 02:39:27;;;;;;;10.27;6.50;;;;;;;8.26;61.80;96133.44;6186429;23;20016;-85
2023/12/15 02:49:28;;;;;;;12.75;7.20;;;;;;;7.95;63.15;96154.34;6211032;23;20032;-85
2023/12/15 02:51:57;;;;;;;12.15;7.50;;;;;;;8.10;62.83;96165.13;6185633;23;20020;-85
2023/12/15 02:54:22;;;;;;;13.77;7.65;;;;;;;7.99;63.01;96156.50;6162063;23;20017;-85
2023/12/15 02:56:48;;;;;;;12.60;7.60;;;;;;;8.20;62.78;96166.72;6186372;23;20078;-85
2023/12/15 03:01:38;;;;;;;13.55;6.88;;;;;;;7.97;62.95;96158.44;6240171;23;20024;-84
2023/12/15 03:04:04;;;;;;;12.02;7.07;;;;;;;7.96;62.69;96171.53;6216782;23;20016;-85
2023/12/15 03:08:55;;;;;;;13.25;7.03;;;;;;;8.19;62.18;96178.06;6210983;23;20048;-84
2023/12/15 03:11:22;;;;;;;10.50;6.50;;;;;;;8.09;62.20;96185.03;6161757;23;20012;-84
2023/12/15 03:13:47;;;;;;;13.75;7.03;;;;;;;8.03;62.44;96189.00;6211061;23;20001;-85
2023/12/15 03:16:13;;;;;;;12.25;7.28;;;;;;;7.80;63.61;96191.00;6161503;23;20009;-85
2023/12/15 03:18:40;;;;;;;11.77;7.18;;;;;;;7.83;63.38;96198.53;6186310;23;20009;-85
2023/12/15 03:23:40;;;;;;;13.88;7.70;;;;;;;7.94;62.70;96192.41;6242562;22;20055;-85
2023/12/15 03:26:07;;;;;;;12.30;7.75;;;;;;;7.74;63.63;96196.75;6216440;23;20004;-85
2023/12/15 03:28:32;;;;;;;14.32;8.32;;;;;;;7.79;63.16;96197.16;6191449;23;20046;-85
2023/12/15 03:30:59;;;;;;;13.32;7.80;;;;;;;7.71;63.84;96212.56;6191607;23;20016;-86
2023/12/15 03:38:28;;;;;;;13.55;7.93;;;;;;;7.83;63.38;96210.66;6242324;22;20027;-85
2023/12/15 03:40:54;;;;;;;14.20;8.27;;;;;;;7.78;63.60;96224.00;6221876;22;20020;-84
2023/12/15 03:45:55;;;;;;;10.88;6.93;;;;;;;7.89;62.82;96237.78;6273005;22;20024;-85
2023/12/15 03:48:23;;;;;;;12.05;7.55;;;;;;;7.75;63.51;96250.19;6221492;22;20014;-85
2023/12/15 03:50:49;;;;;;;11.98;7.35;;;;;;;7.64;63.20;96242.53;6221381;22;20008;-84
2023/12/15 03:53:14;;;;;;;10.40;7.00;;;;;;;7.73;63.40;96246.06;6247519;22;20051;-85
2023/12/15 03:55:40;;;;;;;11.63;7.65;;;;;;;7.83;62.36;96245.16;6248062;22;20008;-84
2023/12/15 03:58:05;;;;;;;11.23;6.90;;;;;;;7.56;62.53;96250.16;6223462;22;20011;-85
2023/12/15 04:00:31;;;;;;;10.75;6.63;;;;;;;7.57;62.33;96259.56;6223391;22;20000;-85
2023/12/15 04:02:57;;;;;;;11.23;7.07;;;;;;;7.39;63.03;96246.44;6223522;22;20087;-85
2023/12/15 04:05:22;;;;;;;15.27;7.95;;;;;;;7.48;63.59;96258.56;6223515;22;20011;-85
2023/12/15 04:12:58;;;;;;;14.27;8.27;;;;;;;7.47;63.94;96272.47;6274848;22;20019;-84
2023/12/15 04:15:26;;;;;;;12.63;7.80;;;;;;;7.31;64.00;96270.41;6198235;22;20003;-84
2023/12/15 04:17:52;;;;;;;11.80;7.57;;;;;;;7.31;63.71;96257.47;6223374;22;20149;-85
2023/12/15 04:20:17;;;;;;;14.55;7.93;;;;;;;7.33;64.05;96288.34;6223483;22;20011;-84
2023/12/15 04:22:43;;;;;;;11.05;7.38;;;;;;;7.54;62.88;96285.69;6223001;22;20012;-84
2023/12/15 04:25:11;;;;;;;12.02;7.40;;;;;;;7.35;62.78;96270.91;6248027;22;20017;-85
2023/12/15 04:27:37;;;;;;;12.07;7.60;;;;;;;7.38;62.99;96268.91;6223265;22;20011;-85
2023/12/15 04:30:03;;;;;;;13.40;7.65;;;;;;;7.66;62.19;96273.47;6247976;22;20086;-85
2023/12/15 04:32:28;;;;;;;13.02;7.47;;;;;;;7.66;62.26;96273.47;6223143;22;20028;-85
2023/12/15 04:34:54;;;;;;;12.63;7.30;;;;;;;7.48;62.91;96273.28;6178577;23;20020;-85
2023/12/15 04:37:19;;;;;;;11.95;7.53;;;;;;;7.49;63.03;96278.34;6186985;23;20088;-85
2023/12/15 04:39:46;;;;;;;11.50;7.05;;;;;;;7.47;63.04;96282.03;6212190;23;19998;-85
2023/12/15 04:49:48;;;;;;;12.90;7.78;;;;;;;7.27;63.45;96294.06;6212934;23;20075;-85
2023/12/15 04:52:13;;;;;;;13.15;7.47;;;;;;;7.48;62.75;96294.00;6163016;23;20012;-85
2023/12/15 04:54:40;;;;;;;13.82;8.18;;;;;;;7.42;63.12;96283.25;6162793;23;20008;-84
2023/12/15 04:57:06;;;;;;;15.32;8.00;;;;;;;7.67;62.55;96288.84;6211965;23;20009;-85
2023/12/15 05:02:07;;;;;;;12.82;7.18;;;;;;;7.62;62.15;96284.09;6142440;23;20022;-85
2023/12/15 05:04:34;;;;;;;15.57;8.93;;;;;;;7.64;62.76;96296.91;6069347;23;20013;-85
2023/12/15 05:06:59;;;;;;;14.90;8.50;;;;;;;7.19;63.56;96307.66;6045415;23;20030;-85
2023/12/15 05:09:24;;;;;;;12.57;8.13;;;;;;;7.46;62.61;96301.88;6069973;23;20014;-86
2023/12/15 05:14:15;;;;;;;12.48;8.10;;;;;;;7.40;62.41;96313.59;6147553;23;20025;-84
2023/12/15 05:16:45;;;;;;;14.60;9.13;;;;;;;7.50;62.44;96323.16;6109760;23;20067;-85
2023/12/15 05:24:11;;;;;;;14.40;8.30;;;;;;;7.63;62.62;96332.34;6245633;22;20031;-85
2023/12/15 05:26:37;;;;;;;14.85;8.55;;;;;;;7.69;61.98;96330.16;6222483;22;20004;-85
2023/12/15 05:29:02;;;;;;;12.23;7.70;;;;;;;7.61;61.51;96330.81;6247180;22;20018;-86
2023/12/15 05:31:28;;;;;;;13.52;7.90;;;;;;;7.64;61.57;96333.16;6221913;22;20040;-86
2023/12/15 05:36:20;;;;;;;11.82;7.65;;;;;;;7.72;61.10;96348.84;6248773;22;20027;-85
2023/12/15 05:41:14;;;;;;;11.65;7.60;;;;;;;7.61;62.00;96348.94;6246119;22;20039;-84
2023/12/15 05:43:44;;;;;;;10.45;6.65;;;;;;;7.73;61.25;96360.03;6222479;22;19999;-85
2023/12/15 05:46:09;;;;;;;12.30;7.28;;;;;;;7.68;61.74;96364.78;6247023;22;20003;-83
2023/12/15 05:51:10;;;;;;;13.38;7.30;;;;;;;7.62;61.87;96371.31;6266975;22;20027;-84
2023/12/15 05:53:35;;;;;;;10.48;6.82;;;;;;;7.73;61.07;96384.16;6197402;22;20012;-85
2023/12/15 05:56:01;;;;;;;12.52;7.50;;;;;;;7.54;61.94;96379.75;6222149;22;20014;-85
2023/12/15 05:58:26;;;;;;;11.70;7.45;;;;;;;7.58;62.28;96390.66;6221621;22;20067;-85
2023/12/15 06:06:02;;;;;;;12.65;7.20;;;;;;;7.54;62.00;96391.84;6271590;22;20070;-85
2023/12/15 06:08:28;;;;;;;12.60;7.18;;;;;;;7.47;61.98;96393.31;6222071;22;20012;-85
2023/12/15 06:10:56;;;;;;;13.85;7.43;;;;;;;7.36;61.92;96400.22;6247155;22;20012;-85
2023/12/15 06:13:22;;;;;;;12.68;7.55;;;;;;;7.43;61.85;96388.41;6222968;22;20008;-85
2023/12/15 06:15:47;;;;;;;12.05;7.68;;;;;;;7.55;61.52;96409.03;6221357;22;20031;-85
2023/12/15 06:18:15;;;;;;;12.30;7.63;;;;;;;7.53;61.69;96408.34;6222080;22;20018;-85
2023/12/15 06:20:40;;;;;;;11.25;6.82;;;;;;;7.48;60.77;96402.72;6222246;22;20011;-85
2023/12/15 06:23:06;;;;;;;9.95;6.43;;;;;;;7.59;60.37;96415.59;6222018;22;20018;-84
2023/12/15 06:30:37;;;;;;;11.35;6.80;;;;;;;7.44;61.11;96415.94;6212581;23;20021;-85
2023/12/15 06:33:08;;;;;;;11.52;7.07;;;;;;;7.44;61.02;96426.28;6186554;23;20015;-84
2023/12/15 06:35:33;;;;;;;10.23;6.13;;;;;;;7.34;60.82;96432.34;6187023;23;20008;-85
2023/12/15 06:45:34;;;;;;;10.80;6.75;;;;;;;7.52;60.71;96448.09;6273543;22;20020;-85
2023/12/15 06:48:00;;;;;;;12.35;7.50;;;;;;;7.52;61.21;96448.09;6220619;22;20011;-86
2023/12/15 06:50:28;;;;;;;11.00;6.80;;;;;;;7.56;61.62;96463.28;6221061;22;20008;-85
2023/12/15 06:52:54;;;;;;;10.82;6.53;;;;;;;7.40;62.06;96462.91;6222098;22;20007;-85
2023/12/15 06:57:54;;;;;;;16.88;9.05;;;;;;;7.37;62.32;96465.75;6271364;22;20027;-85
2023/12/15 07:00:20;;;;;;;16.95;9.82;;;;;;;7.32;62.68;96483.41;6221841;22;20012;-84
2023/12/15 07:05:12;;;;;;;13.90;8.35;;;;;;;7.57;62.55;96501.16;6176960;23;20017;-85
2023/12/15 07:07:38;;;;;;;13.07;8.38;;;;;;;7.58;62.10;96504.56;6185665;23;20061;-85
2023/12/15 07:10:04;;;;;;;15.48;8.50;;;;;;;7.62;61.78;96501.59;6161283;23;20005;-85
2023/12/15 07:12:29;;;;;;;12.35;7.63;;;;;;;7.60;61.14;96500.91;6186165;23;20012;-85
2023/12/15 07:17:22;;;;;;;12.80;7.70;;;;;;;7.51;61.31;96513.78;6209269;23;20017;-87
2023/12/15 07:19:48;;;;;;;12.30;7.47;;;;;;;7.73;60.20;96516.25;6211058;23;20235;-85
2023/12/15 07:22:13;;;;;;;9.88;6.13;;;;;;;7.67;60.40;96523.69;6210519;23;20004;-86
2023/12/15 07:24:41;;;;;;;10.95;6.70;;;;;;;7.53;60.67;96527.44;6186203;23;20016;-85
2023/12/15 07:27:07;;;;;;;11.13;6.75;;;;;;;7.50;60.29;96530.25;6161117;23;20012;-85
2023/12/15 07:29:33;;;;;;;10.63;6.55;;;;;;;7.32;61.08;96530.81;6163250;23;20055;-85
2023/12/15 07:31:58;;;;;;;11.45;7.07;;;;;;;7.40;61.03;96541.34;6212134;23;20027;-84
2023/12/15 07:34:25;;;;;;;13.32;7.82;;;;;;;7.30;62.11;96545.66;6187496;23;20012;-84
2023/12/15 07:36:53;;;;;;;12.05;7.47;;;;;;;7.24;62.53;96544.38;6188083;23;20009;-84
2023/12/15 07:39:21;;;;;;;11.82;7.10;;;;;;;7.37;62.06;96543.41;6163781;23;20012;-85
2023/12/15 07:41:48;;;;;;;9.52;6.43;;;;;;;7.39;62.44;96563.03;6212039;23;20012;-85
2023/12/15 07:44:14;;;;;;;12.15;7.18;;;;;;;7.44;61.70;96560.06;6212530;23;20030;-85
2023/12/15 07:46:42;;;;;;;12.07;7.00;;;;;;;7.53;61.36;96561.09;6186568;23;20012;-85
2023/12/15 07:49:11;;;;;;;10.88;6.75;;;;;;;7.51;61.81;96562.97;6211771;23;20012;-85
2023/12/15 07:51:36;;;;;;;11.00;6.80;;;;;;;7.61;60.97;96563.84;6187335;23;20135;-83
2023/12/15 07:54:02;;;;;;;10.82;6.35;;;;;;;7.63;60.78;96546.44;6212292;23;20005;-85
2023/12/15 07:56:29;;;;;;;9.93;6.38;;;;;;;7.68;60.62;96567.59;6186657;23;20032;-85
2023/12/15 07:58:56;;;;;;;9.27;6.30;;;;;;;7.88;59.35;96568.56;6211186;23;20016;-85
2023/12/15 08:01:23;;;;;;;9.10;6.32;;;;;;;7.98;58.36;96559.06;6212878;23;20000;-86
2023/12/15 08:08:55;;;;;;;10.05;6.35;;;;;;;7.66;60.65;96574.66;6209868;23;20028;-85
2023/12/15 08:13:47;;;;;;;14.80;7.90;;;;;;;7.45;63.27;96574.66;6211955;23;20031;-85
2023/12/15 08:16:12;;;;;;;13.13;7.78;;;;;;;7.59;63.51;96583.88;6188005;23;20009;-86
2023/12/15 08:18:39;;;;;;;17.13;9.30;;;;;;;7.76;62.99;96578.13;6187813;23;20119;-85
2023/12/15 08:21:07;;;;;;;18.75;10.20;;;;;;;7.88;63.14;96585.84;6212739;23;20012;-84
2023/12/15 08:23:32;;;;;;;14.00;8.75;;;;;;;7.80;63.52;96592.47;6187622;23;20024;-85
2023/12/15 08:28:26;;;;;;;17.25;9.55;;;;;;;7.95;62.43;96585.22;6212296;23;20024;-85
2023/12/15 08:30:51;;;;;;;14.93;9.05;;;;;;;8.15;62.36;96612.06;6186852;23;20016;-85
2023/12/15 08:33:17;;;;;;;17.05;9.88;;;;;;;8.12;62.04;96588.97;6186970;23;20043;-85
2023/12/15 08:35:43;;;;;;;14.13;8.70;;;;;;;8.02;62.30;96591.53;6187396;23;20067;-85
2023/12/15 08:38:08;;;;;;;16.05;8.40;;;;;;;8.20;62.27;96583.97;6212027;23;19996;-85
2023/12/15 08:42:59;;;;;;;13.57;8.60;;;;;;;8.25;62.51;96593.16;6212183;23;20028;-84
2023/12/15 08:45:25;;;;;;;13.27;7.88;;;;;;;8.26;62.43;96590.41;6187289;23;20242;-85
2023/12/15 08:47:51;;;;;;;13.10;7.80;;;;;;;8.70;61.46;96598.00;6212319;23;20004;-85
2023/12/15 08:50:20;;;;;;;11.82;7.63;;;;;;;8.59;61.01;96586.78;6187149;23;20062;-85
2023/12/15 08:52:45;;;;;;;11.20;7.72;;;;;;;8.63;61.90;96596.91;6187827;23;20012;-84
2023/12/15 08:57:46;;;;;;;10.68;6.97;;;;;;;9.00;61.02;96605.75;6231823;22;20035;-84
2023/12/15 09:00:11;;;;;;;9.13;6.30;;;;;;;8.97;59.87;96593.03;6192263;23;20008;-84
2023/12/15 09:02:39;;;;;;;9.80;6.22;;;;;;;9.25;59.62;96598.38;6192823;23;20012;-85
2023/12/15 09:05:08;;;;;;;8.38;6.18;;;;;;;9.36;58.21;96593.06;6191966;23;20091;-85
2023/12/15 09:15:14;;;;;;;10.13;6.78;;;;;;;9.71;54.18;96594.31;6273497;22;20020;-85
2023/12/15 09:17:42;;;;;;;8.43;6.78;;;;;;;9.92;57.10;96595.94;6247063;22;20057;-84
2023/12/15 09:20:08;;;;;;;7.95;5.80;;;;;;;10.10;56.00;96588.22;6246129;22;20057;-85
2023/12/15 09:37:54;;;;;;;8.27;5.93;;;;;;;10.96;53.74;96620.06;6213062;23;20029;-85
2023/12/15 09:40:23;;;;;;;8.85;6.05;;;;;;;10.84;53.11;96623.84;6162294;23;20013;-85
2023/12/15 09:42:49;;;;;;;9.88;6.72;;;;;;;10.90;53.62;96612.84;6211479;23;20001;-84
2023/12/15 09:47:45;;;;;;;8.52;6.20;;;;;;;10.39;53.28;96611.56;6272930;22;20027;-85
2023/12/15 09:50:12;;;;;;;8.60;6.30;;;;;;;10.43;53.47;96614.69;6246672;22;20003;-85
2023/12/15 09:52:42;;;;;;;6.60;5.43;;;;;;;10.61;52.71;96631.22;6222308;22;20076;-85
2023/12/15 09:55:12;;;;;;;7.18;4.97;;;;;;;10.55;52.66;96613.56;6222622;22;20008;-85
2023/12/15 10:00:05;;;;;;;7.68;4.97;;;;;;;10.66;53.72;96634.22;6159445;23;20019;-86
2023/12/15 10:02:33;;;;;;;5.90;4.70;;;;;;;10.74;53.28;96631.69;6187088;23;20008;-85
2023/12/15 10:04:59;;;;;;;5.57;4.63;;;;;;;10.72;52.72;96630.22;6212000;23;20030;-86
2023/12/15 10:09:49;;;;;;;7.07;5.37;;;;;;;10.55;55.51;96629.19;6212402;23;20036;-85
2023/12/15 10:12:15;;;;;;;6.15;5.03;;;;;;;10.95;53.63;96630.66;6162288;23;20246;-85
2023/12/15 10:14:41;;;;;;;6.63;4.90;;;;;;;10.90;53.56;96627.66;6186719;23;20035;-85
2023/12/15 10:17:10;;;;;;;6.60;5.07;;;;;;;11.17;52.96;96634.63;6186517;23;20012;-85
2023/12/15 10:19:36;;;;;;;6.63;5.20;;;;;;;11.14;52.83;96624.53;6187133;23;20099;-85
2023/12/15 10:24:37;;;;;;;7.53;5.80;;;;;;;11.00;53.86;96631.03;6118441;23;20030;-85
2023/12/15 10:27:03;;;;;;;8.43;6.43;;;;;;;10.99;53.85;96632.00;6068902;23;20009;-85
2023/12/15 10:29:29;;;;;;;10.20;6.57;;;;;;;11.19;53.88;96630.09;6069166;23;20010;-85
2023/12/15 10:31:55;;;;;;;7.95;5.90;;;;;;;10.80;55.29;96625.09;6069019;23;20006;-85
2023/12/15 10:34:26;;;;;;;8.93;6.50;;;;;;;11.05;53.26;96617.59;6045109;23;20085;-86
2023/12/15 10:36:52;;;;;;;;;;;;;;;10.53;54.02;96612.91;6142016;22;20111;-85
2023/12/15 10:39:22;;;;;;;9.77;6.45;;;;;;;10.60;53.99;96606.13;6156807;23;19946;-85
2023/12/15 10:41:48;;;;;;;9.40;6.40;;;;;;;10.30;55.40;96604.56;6157092;23;20036;-85
2023/12/15 10:44:14;;;;;;;9.00;6.18;;;;;;;10.41;54.82;96604.44;6251052;22;20096;-86
2023/12/15 10:46:42;;;;;;;9.85;6.55;;;;;;;10.33;54.79;96622.53;6246393;22;20000;-86
2023/12/15 10:49:09;;;;;;;10.15;6.68;;;;;;;10.59;53.96;96620.13;6246710;22;20011;-84
2023/12/15 10:51:38;;;;;;;9.07;6.55;;;;;;;10.28;55.48;96615.13;6222113;22;20014;-85
2023/12/15 10:54:05;;;;;;;8.95;6.70;;;;;;;10.61;54.36;96609.59;6246215;22;20038;-84
2023/12/15 10:59:00;;;;;;;9.52;6.70;;;;;;;10.43;55.22;96591.28;6177397;23;20107;-86
2023/12/15 11:01:31;;;;;;;8.75;6.60;;;;;;;10.74;54.16;96600.47;6186060;23;20013;-85
2023/12/15 11:03:58;;;;;;;10.30;6.53;;;;;;;10.75;54.00;96586.47;6211646;23;20028;-84
2023/12/15 11:14:04;;;;;;;8.68;6.18;;;;;;;10.76;52.54;96592.53;6210427;23;20056;-86
2023/12/15 11:16:35;;;;;;;9.10;6.15;;;;;;;11.05;53.21;96607.97;6211696;23;19993;-86
2023/12/15 11:19:00;;;;;;;;;;;;;;;10.57;53.07;96604.66;6211753;23;20001;-86
2023/12/15 11:21:27;;;;;;;9.13;6.53;;;;;;;11.28;53.62;96618.78;6211194;23;19931;-85
2023/12/15 11:24:07;;;;;;;7.30;5.80;;;;;;;11.53;52.74;96619.03;6211630;23;20008;-85
2023/12/15 11:26:39;;;;;;;7.85;5.65;;;;;;;11.64;52.69;96618.81;6211134;23;20009;-86
2023/12/15 11:29:11;;;;;;;9.20;5.38;;;;;;;11.65;51.09;96623.06;6211209;23;20076;-85
2023/12/15 11:31:40;;;;;;;5.15;4.55;;;;;;;11.45;49.03;96608.53;6211308;23;20015;-86
2023/12/15 11:36:44;;;;;;;8.25;5.50;;;;;;;11.45;48.59;96604.16;6202733;23;20027;-86
2023/12/15 11:39:14;;;;;;;6.53;4.88;;;;;;;11.60;48.84;96599.25;6187223;23;20013;-87
2023/12/15 11:41:41;;;;;;;8.65;5.32;;;;;;;11.26;48.32;96617.31;6211038;23;20043;-85
2023/12/15 11:44:06;;;;;;;6.30;4.95;;;;;;;11.38;49.82;96625.72;6186509;23;20094;-86
2023/12/15 11:46:35;;;;;;;5.65;3.80;;;;;;;11.53;49.26;96632.06;6186596;23;20020;-86
2023/12/15 11:51:30;;;;;;;5.15;4.45;;;;;;;11.79;48.20;96633.94;6208117;23;20089;-85
2023/12/15 11:54:00;;;;;;;7.25;4.85;;;;;;;11.82;48.23;96633.63;6210878;23;20011;-86
2023/12/15 11:56:26;;;;;;;7.67;4.90;;;;;;;11.73;49.07;96637.97;6186481;23;20005;-85
2023/12/15 11:58:52;;;;;;;5.38;4.53;;;;;;;11.71;49.18;96647.72;6211022;23;20004;-86
2023/12/15 12:06:20;;;;;;;5.13;4.35;;;;;;;11.70;46.82;96644.28;6230615;23;20024;-85
2023/12/15 12:08:46;;;;;;;5.72;5.00;;;;;;;11.58;47.04;96642.88;6216395;23;20004;-84
2023/12/15 12:11:16;;;;;;;5.45;4.50;;;;;;;11.54;48.44;96642.34;6191989;23;20012;-85
2023/12/15 12:13:41;;;;;;;4.95;4.00;;;;;;;11.90;47.96;96641.56;6191633;23;20026;-86
2023/12/15 12:16:08;;;;;;;5.00;3.92;;;;;;;11.91;47.56;96646.59;6193243;23;20008;-85
2023/12/15 12:31:29;;;;;;;4.57;3.50;;;;;;;11.92;43.74;96655.25;6262876;22;20007;-85
2023/12/15 12:33:54;;;;;;;3.90;3.50;;;;;;;11.64;45.13;96654.50;6223179;22;20024;-85
2023/12/15 12:36:20;;;;;;;4.47;3.40;;;;;;;11.31;45.70;96654.97;6223203;22;20004;-86
2023/12/15 12:38:47;;;;;;;4.80;3.53;;;;;;;11.34;48.02;96654.66;6271287;22;20012;-86
2023/12/15 12:41:15;;;;;;;5.32;4.10;;;;;;;11.52;48.19;96657.31;6248159;22;20023;-85
2023/12/15 12:43:41;;;;;;;6.30;4.28;;;;;;;11.46;48.96;96651.84;6223218;22;20069;-85
2023/12/15 12:46:13;;;;;;;7.32;4.85;;;;;;;11.42;49.28;96647.91;6223150;22;20087;-85
2023/12/15 12:48:39;;;;;;;5.35;4.25;;;;;;;11.33;49.10;96673.88;6223660;22;20012;-85
2023/12/15 12:53:43;;;;;;;5.68;4.35;;;;;;;11.48;49.46;96678.56;6265083;22;20081;-86
2023/12/15 12:56:10;;;;;;;6.15;4.30;;;;;;;11.67;47.28;96675.88;6198534;22;20023;-84
2023/12/15 13:06:11;;;;;;;6.18;4.72;;;;;;;10.86;46.98;96681.78;6273078;22;20058;-86
2023/12/15 13:08:37;;;;;;;5.63;4.38;;;;;;;10.54;48.53;96689.97;6248484;22;20016;-85
2023/12/15 13:16:03;;;;;;;6.65;4.78;;;;;;;10.18;51.14;96674.13;6261926;22;20028;-86
2023/12/15 13:18:29;;;;;;;9.30;5.07;;;;;;;10.36;49.76;96672.50;6222887;22;20014;-85
2023/12/15 13:25:58;;;;;;;6.72;5.05;;;;;;;10.41;51.74;96666.84;6272415;22;20019;-85
2023/12/15 13:28:26;;;;;;;6.68;4.93;;;;;;;10.60;51.43;96676.38;6247785;22;20010;-86
2023/12/15 13:30:52;;;;;;;6.32;4.93;;;;;;;10.88;50.05;96676.44;6225401;22;20088;-86
2023/12/15 13:35:44;;;;;;;5.43;4.43;;;;;;;10.83;49.94;96656.03;6270852;22;20194;-86
2023/12/15 13:38:09;;;;;;;7.00;5.65;;;;;;;11.14;48.63;96679.22;6222097;22;20016;-85
2023/12/15 13:40:35;;;;;;;7.22;4.97;;;;;;;10.80;49.35;96682.38;6223022;22;20012;-85
2023/12/15 13:43:00;;;;;;;7.53;4.72;;;;;;;10.74;50.25;96677.72;6221276;22;20065;-85
2023/12/15 13:47:51;;;;;;;6.38;4.50;;;;;;;10.62;49.15;96678.84;6267523;22;20093;-86
2023/12/15 13:50:20;;;;;;;7.05;4.45;;;;;;;10.54;49.45;96688.19;6222183;22;20014;-85
2023/12/15 13:55:13;;;;;;;6.55;4.80;;;;;;;10.31;49.81;96674.69;6268091;22;20027;-85
2023/12/15 13:57:39;;;;;;;6.43;4.80;;;;;;;10.49;49.90;96680.00;6222756;22;20035;-86
2023/12/15 14:02:31;;;;;;;7.63;5.15;;;;;;;10.55;51.38;96694.22;6190303;23;20008;-86
2023/12/15 14:04:56;;;;;;;7.47;4.88;;;;;;;10.78;49.34;96692.09;6186713;23;20019;-86
2023/12/15 14:07:22;;;;;;;6.50;5.05;;;;;;;10.77;49.53;96698.25;6186349;23;20008;-86
2023/12/15 14:09:47;;;;;;;6.40;5.22;;;;;;;10.46;50.18;96689.88;6211468;23;20009;-86
2023/12/15 14:12:12;;;;;;;6.85;4.78;;;;;;;10.83;49.75;96697.69;6186073;23;20009;-85
2023/12/15 14:14:40;;;;;;;6.70;4.72;;;;;;;10.65;49.68;96695.00;6185836;23;20001;-86
2023/12/15 14:22:07;;;;;;;6.65;4.60;;;;;;;10.50;50.43;96697.22;6205496;23;20035;-85
2023/12/15 14:24:33;;;;;;;7.18;5.35;;;;;;;10.45;49.86;96707.25;6211492;23;20013;-85
2023/12/15 14:26:59;;;;;;;6.78;5.05;;;;;;;10.45;50.59;96712.47;6211914;23;20004;-86
2023/12/15 14:29:24;;;;;;;7.03;4.90;;;;;;;10.53;51.03;96706.56;6186787;23;20067;-85
2023/12/15 14:31:50;;;;;;;7.05;5.10;;;;;;;10.54;51.04;96722.00;6211317;23;20003;-86
2023/12/15 14:34:15;;;;;;;6.10;4.30;;;;;;;10.56;50.49;96729.66;6186033;23;20008;-85
2023/12/15 14:36:41;;;;;;;6.68;4.85;;;;;;;10.37;50.38;96718.31;6240286;23;20024;-85
2023/12/15 14:39:10;;;;;;;7.18;4.90;;;;;;;10.37;50.77;96723.53;6192630;23;20016;-86
2023/12/15 14:41:36;;;;;;;7.20;5.60;;;;;;;10.43;50.98;96724.75;6216916;23;20066;-86
2023/12/15 14:44:03;;;;;;;8.32;5.22;;;;;;;10.35;51.27;96720.25;6191973;23;20012;-87
2023/12/15 14:54:07;;;;;;;8.75;6.20;;;;;;;9.74;53.86;96741.28;6218757;23;20024;-86
2023/12/15 14:56:32;;;;;;;10.95;6.20;;;;;;;9.74;53.92;96736.91;6192154;23;20020;-85
2023/12/15 14:58:58;;;;;;;8.38;5.70;;;;;;;9.67;53.66;96741.03;6195668;23;20012;-86
2023/12/15 15:01:24;;;;;;;9.00;6.40;;;;;;;9.74;54.09;96756.88;6186831;23;20004;-85
2023/12/15 15:03:49;;;;;;;8.65;5.88;;;;;;;9.58;55.45;96767.81;6161752;23;20008;-85
2023/12/15 15:06:17;;;;;;;9.20;5.95;;;;;;;9.75;53.89;96767.16;6186589;23;20008;-86
2023/12/15 15:11:11;;;;;;;8.68;5.82;;;;;;;9.63;54.98;96767.38;6213944;23;20069;-85
2023/12/15 15:13:37;;;;;;;8.85;6.00;;;;;;;9.44;54.87;96760.38;6216800;23;20074;-85
2023/12/15 15:16:05;;;;;;;8.00;5.63;;;;;;;9.36;55.08;96767.03;6191438;23;20043;-85
2023/12/15 15:18:34;;;;;;;8.10;5.70;;;;;;;9.42;55.58;96781.28;6191657;23;20016;-86
2023/12/15 15:20:59;;;;;;;7.78;5.25;;;;;;;9.35;55.94;96775.78;6191627;23;20012;-84
2023/12/15 15:23:25;;;;;;;10.40;5.90;;;;;;;9.46;55.31;96794.81;6192274;23;20045;-85
2023/12/15 15:25:50;;;;;;;8.77;5.45;;;;;;;9.46;55.58;96802.59;6270009;22;20015;-84
2023/12/15 15:28:16;;;;;;;7.68;5.63;;;;;;;9.48;55.79;96803.28;6246963;22;20007;-85
2023/12/15 15:30:44;;;;;;;8.77;5.70;;;;;;;9.37;55.86;96809.44;6221704;22;20064;-86
2023/12/15 15:33:10;;;;;;;9.38;5.68;;;;;;;9.45;55.46;96808.78;6221220;22;20065;-85
2023/12/15 15:40:46;;;;;;;9.68;6.00;;;;;;;8.76;56.60;96833.56;6273902;22;20020;-85